Highest pressure

Not for real navigation. The accuracy of this data is not assured See disclaimer for more information



ICAO NAME COUNTRY WIND Kt GUST Kt VIS m TEMP/DEW C BARO METAR
SLLP La Paz / Alto Bolivia 6 0 9999 9/2 30.65 SLLP 252300Z 07006KT 9999 FEW015 FEW017CB SCT200 09/02 Q1038
SPJL Juliaca Peru 8 0 9999 10/4 30.56 SPJL 252300Z 11008KT 9999 SCT020 BKN100 10/04 Q1035 RMK PP000
SLOR Oruro Bolivia 10 20 9999 12/6 30.56 SLOR 252300Z 04010G20KT 9999 FEW015 FEW017CB SCT070 BKN200 12/06 Q1035
KMYP Salida Mountain, Monarch Pass CO United States 22 31 9999 7/-20 30.47 KMYP 252353Z AUTO 26022G31KT 10SM CAVOK 07/M20 A3047 RMK AO2
SPZO Cuzco Peru 10 0 9999 13/4 30.45 SPZO 252330Z 27010KT 9999 SCT040 BKN100 13/04 Q1031 NOSIG RMK BIRD HAZARD RWY 28

Show more